Airfield :
LOGIN :

Register | Disclaimer

   EN    FR    IT 

 










Legend :    VFR   Marginal VFR   IFR   Intensive IFR   Very Intensive IFR
Visi :
Ceiling :
>= 8 km
>= 3000ft
5 to 8 km
1000 to 3000 ft
1500m to 5 km
500 to 1000 ft
800 to 1500m
200 to 500 ft
< 800m
< 200 ft
Symbols :   Thunderstorms  Fog  Heavy snow  Heavy precipitations  Wind > 20 kt
SIGMETs :     Misc.  Thunderstorms  Icing  Turbulence  Mountain Waves  Volcanic Ashes






- Airport Elevation : 12 ft
- IATA code : BCN


LEBL - Barcelone

CURRENT METAR :
  • 130900Z 33009G19KT 9999 -RA FEW035 BKN045 09/07 Q1006 NOSIG

EXPIRED METARs :
  • 130830Z 33010G21KT 9999 -RA SCT030 BKN045 10/07 Q1006 NOSIG
  • 130800Z 32010G20KT 9999 -RA SCT030 BKN055 10/06 Q1005 NOSIG
  • 130730Z 32011KT 290V010 9999 FEW025 11/05 Q1005 NOSIG
  • 130700Z 32008KT 9999 FEW025 10/05 Q1004 NOSIG

TAF TAF LEBL
Valid from the 13 at 06:00 until the 14 at 06:00 UTC


130500Z 1306/1406 33007KT 9999 FEW025 TX16/1312Z TN09/1306Z
BECMG 1307/1310 34010KT
TEMPO 1307/1313 7000 RA BKN020
TEMPO 1315/1402 VRB04KT



MET'MAP, your aeronautical weather chart ! - Copyright ORBIFLY December 2007 - Disclaimer

ORBIFLY MET'MAP TEAM :

Programming & Development : Alexandra Zaïnal
Concept & Development : Baudouin d'Aumeries
Co-Development & Prog : Marc-Olivier Méhu
Technical & hardware support : Manuel Goepfert

Contact : metmap@orbifly.com




SOURCES & CREDITS :

   NOAA